KBUR/BUR METAR and TAF weather

Enter ICAO airport designator
Station Type Date Time Source
KBUR METAR 2019/06/17 13:15 UTC NOAA

KBUR 171315Z 17003KT 9SM SCT007 OVC012 16/14 A2987 RMK AO2 T01560144


Station Type Date Time Source
KBUR Decoded METAR 2019/06/17 13:15 UTC NOAA

BURBANK-GLENDALE-PASADENA, CA, United States (KBUR) 34-12N 118-22W 217M
Jun 17, 2019 - 09:15 AM EDT / 2019.06.17 1315 UTC
Wind: from the S (170 degrees) at 3 MPH (3 KT):0
Visibility: 9 mile(s):0
Sky conditions: overcast
Temperature: 60.1 F (15.6 C)
Dew Point: 57.9 F (14.4 C)
Relative Humidity: 92%
Pressure (altimeter): 29.87 in. Hg (1011 hPa)
ob: KBUR 171315Z 17003KT 9SM SCT007 OVC012 16/14 A2987 RMK AO2 T01560144
cycle: 13

Station Type Date Time Source
KBUR TAF 2019/06/17 12:33 UTC NOAA

TAF KBUR 171131Z 1712/1812 15005KT P6SM OVC016
FM171400 VRB03KT P6SM OVC014
FM172000 19008KT P6SM SKC
FM180400 16005KT P6SM OVC018
FM180900 VRB03KT P6SM OVC012

Example: see airport list